Time,TemperatureF,DewpointF,PressureIn,WindDirection,WindDirectionDegrees,WindSpeedMPH,WindSpeedGustMPH,Humidity,HourlyPrecipIn,Conditions,Clouds,dailyrainin,SoftwareType,DateUTC
2013-01-23 00:04:00,5.5,-4.0,30.11,SW,225,1.7,-999.0,64,-99.99,,,0.00,Acu-Link.com,2013-01-23 05:04:00,
2013-01-23 00:21:00,6.4,-3.5,30.11,West,270,3.2,-999.0,63,-99.99,,,0.00,Acu-Link.com,2013-01-23 05:21:00,
2013-01-23 00:36:00,6.4,-3.5,30.09,West,270,2.7,-999.0,63,-99.99,,,0.00,Acu-Link.com,2013-01-23 05:36:00,
2013-01-23 00:52:00,5.9,-3.6,30.10,WNW,292,2.2,-999.0,64,-99.99,,,0.00,Acu-Link.com,2013-01-23 05:52:00,
2013-01-23 01:09:00,5.4,-3.5,30.11,WSW,247,3.7,-999.0,66,-99.99,,,0.00,Acu-Link.com,2013-01-23 06:09:00,
2013-01-23 01:30:00,5.0,-3.2,30.11,South,180,1.1,-999.0,68,-99.99,,,0.00,Acu-Link.com,2013-01-23 06:30:00,
2013-01-23 01:46:00,1.8,-3.4,30.11,SE,135,1.1,-999.0,78,-99.99,,,0.00,Acu-Link.com,2013-01-23 06:46:00,
2013-01-23 03:16:00,-2.0,-5.1,30.12,ESE,112,0.0,-999.0,86,-99.99,,,0.00,Acu-Link.com,2013-01-23 08:16:00,
2013-01-23 03:31:00,-2.6,-5.0,30.12,NE,45,1.1,-999.0,89,-99.99,,,0.00,Acu-Link.com,2013-01-23 08:31:00,
2013-01-23 04:16:00,-3.5,-5.9,30.14,SSW,202,0.0,-999.0,89,-99.99,,,0.00,Acu-Link.com,2013-01-23 09:16:00,
2013-01-23 05:35:00,-4.2,-6.4,30.13,East,90,0.0,-999.0,90,-99.99,,,0.00,Acu-Link.com,2013-01-23 10:35:00,
2013-01-23 05:50:00,-2.9,-4.9,30.13,ENE,67,1.1,-999.0,91,-99.99,,,0.00,Acu-Link.com,2013-01-23 10:50:00,
2013-01-23 06:08:00,-3.6,-6.5,30.14,SSW,202,0.0,-999.0,87,-99.99,,,0.00,Acu-Link.com,2013-01-23 11:08:00,
2013-01-23 06:24:00,-4.0,-6.6,30.13,ENE,67,0.0,-999.0,88,-99.99,,,0.00,Acu-Link.com,2013-01-23 11:24:00,
2013-01-23 06:39:00,-4.0,-6.0,30.13,SE,135,0.0,-999.0,91,-99.99,,,0.00,Acu-Link.com,2013-01-23 11:39:00,
2013-01-23 06:55:00,-5.6,-9.4,30.13,West,270,0.0,-999.0,83,-99.99,,,0.00,Acu-Link.com,2013-01-23 11:55:00,
2013-01-23 07:10:00,-5.3,-7.0,30.13,SSE,157,0.0,-999.0,92,-99.99,,,0.00,Acu-Link.com,2013-01-23 12:10:00,
2013-01-23 07:26:00,-5.6,-7.8,30.13,SW,225,0.0,-999.0,90,-99.99,,,0.00,Acu-Link.com,2013-01-23 12:26:00,
2013-01-23 07:49:00,-4.9,-6.8,30.13,East,90,0.0,-999.0,91,-99.99,,,0.00,Acu-Link.com,2013-01-23 12:49:00,
2013-01-23 08:04:00,-4.9,-7.5,30.14,South,180,0.0,-999.0,88,-99.99,,,0.00,Acu-Link.com,2013-01-23 13:04:00,
2013-01-23 08:20:00,-0.6,-3.5,30.14,SE,135,1.7,-999.0,87,-99.99,,,0.00,Acu-Link.com,2013-01-23 13:20:00,
2013-01-23 08:35:00,0.7,-2.7,30.14,ESE,112,1.7,-999.0,85,-99.99,,,0.00,Acu-Link.com,2013-01-23 13:35:00,
2013-01-23 08:50:00,1.4,-2.5,30.16,ENE,67,1.7,-999.0,83,-99.99,,,0.00,Acu-Link.com,2013-01-23 13:50:00,
2013-01-23 09:06:00,3.2,-1.3,30.14,ESE,112,2.2,-999.0,81,-99.99,,,0.00,Acu-Link.com,2013-01-23 14:06:00,
2013-01-23 09:21:00,5.4,-0.2,30.15,NE,45,2.2,-999.0,77,-99.99,,,0.00,Acu-Link.com,2013-01-23 14:21:00,
2013-01-23 09:37:00,7.0,0.8,30.14,SSE,157,0.0,-999.0,75,-99.99,,,0.00,Acu-Link.com,2013-01-23 14:37:00,
2013-01-23 09:54:00,8.2,0.8,30.15,East,90,2.7,-999.0,71,-99.99,,,0.00,Acu-Link.com,2013-01-23 14:54:00,
2013-01-23 10:20:00,11.3,1.5,30.14,SSE,157,1.7,-999.0,64,-99.99,,,0.00,Acu-Link.com,2013-01-23 15:20:00,
2013-01-23 10:35:00,12.2,1.7,30.13,ESE,112,1.7,-999.0,62,-99.99,,,0.00,Acu-Link.com,2013-01-23 15:35:00,
2013-01-23 10:50:00,15.8,1.3,30.15,West,270,4.7,-999.0,52,-99.99,,,0.00,Acu-Link.com,2013-01-23 15:50:00,
2013-01-23 11:06:00,17.4,1.5,30.13,North,0,3.7,-999.0,49,-99.99,,,0.00,Acu-Link.com,2013-01-23 16:06:00,
2013-01-23 11:30:00,16.5,1.6,30.11,NW,315,5.3,-999.0,51,-99.99,,,0.00,Acu-Link.com,2013-01-23 16:30:00,
2013-01-23 12:08:00,17.8,1.5,30.10,NW,315,2.7,-999.0,48,-99.99,,,0.00,Acu-Link.com,2013-01-23 17:08:00,
2013-01-23 12:24:00,16.9,1.5,30.07,West,270,3.2,-999.0,50,-99.99,,,0.00,Acu-Link.com,2013-01-23 17:24:00,
2013-01-23 12:39:00,17.8,1.5,30.07,North,0,3.7,-999.0,48,-99.99,,,0.00,Acu-Link.com,2013-01-23 17:39:00,
2013-01-23 12:54:00,19.0,0.7,30.08,West,270,5.8,-999.0,44,-99.99,,,0.00,Acu-Link.com,2013-01-23 17:54:00,
2013-01-23 13:10:00,19.4,1.1,30.07,WNW,292,9.9,-999.0,44,-99.99,,,0.00,Acu-Link.com,2013-01-23 18:10:00,
2013-01-23 13:25:00,17.8,2.3,30.07,West,270,4.7,-999.0,50,-99.99,,,0.00,Acu-Link.com,2013-01-23 18:25:00,
2013-01-23 13:41:00,19.2,0.4,30.05,WNW,292,4.2,-999.0,43,-99.99,,,0.00,Acu-Link.com,2013-01-23 18:41:00,
2013-01-23 13:56:00,17.6,1.7,30.06,WNW,292,9.9,-999.0,49,-99.99,,,0.00,Acu-Link.com,2013-01-23 18:56:00,
2013-01-23 14:12:00,15.8,0.9,30.06,NNW,337,6.3,-999.0,51,-99.99,,,0.00,Acu-Link.com,2013-01-23 19:12:00,
2013-01-23 14:27:00,20.3,3.8,30.05,West,270,11.4,-999.0,48,-99.99,,,0.00,Acu-Link.com,2013-01-23 19:27:00,
2013-01-23 14:42:00,20.5,3.0,30.06,WNW,292,10.4,-999.0,46,-99.99,,,0.00,Acu-Link.com,2013-01-23 19:42:00,
2013-01-23 14:57:00,19.8,4.2,30.05,SW,225,3.2,-999.0,50,-99.99,,,0.00,Acu-Link.com,2013-01-23 19:57:00,
2013-01-23 15:13:00,19.9,6.0,30.06,SSW,202,5.8,-999.0,54,-99.99,,,0.00,Acu-Link.com,2013-01-23 20:13:00,
2013-01-23 15:28:00,15.6,6.0,30.06,West,270,9.4,-999.0,65,-99.99,,,0.00,Acu-Link.com,2013-01-23 20:28:00,
2013-01-23 15:43:00,15.1,6.1,30.07,West,270,4.7,-999.0,67,-99.99,,,0.00,Acu-Link.com,2013-01-23 20:43:00,
2013-01-23 15:59:00,15.1,3.4,30.07,WSW,247,4.7,-999.0,59,-99.99,,,0.00,Acu-Link.com,2013-01-23 20:59:00,
2013-01-23 16:15:00,15.4,3.3,30.06,NW,315,2.7,-999.0,58,-99.99,,,0.00,Acu-Link.com,2013-01-23 21:15:00,
2013-01-23 16:30:00,15.6,3.1,30.06,ENE,67,1.7,-999.0,57,-99.99,,,0.00,Acu-Link.com,2013-01-23 21:30:00,
2013-01-23 16:45:00,15.4,0.5,30.05,West,270,6.3,-999.0,51,-99.99,,,0.00,Acu-Link.com,2013-01-23 21:45:00,
2013-01-23 17:00:00,14.9,0.9,30.07,West,270,5.8,-999.0,53,-99.99,,,0.00,Acu-Link.com,2013-01-23 22:00:00,
2013-01-23 17:16:00,14.2,1.4,30.06,West,270,5.8,-999.0,56,-99.99,,,0.00,Acu-Link.com,2013-01-23 22:16:00,
2013-01-23 17:31:00,14.0,2.0,30.05,West,270,3.2,-999.0,58,-99.99,,,0.00,Acu-Link.com,2013-01-23 22:31:00,
2013-01-23 17:47:00,13.5,2.2,30.06,WNW,292,3.7,-999.0,60,-99.99,,,0.00,Acu-Link.com,2013-01-23 22:47:00,
2013-01-23 18:02:00,12.2,2.4,30.07,West,270,1.1,-999.0,64,-99.99,,,0.00,Acu-Link.com,2013-01-23 23:02:00,
2013-01-23 18:17:00,11.8,1.7,30.06,SSW,202,0.0,-999.0,63,-99.99,,,0.00,Acu-Link.com,2013-01-23 23:17:00,
2013-01-23 18:33:00,9.0,1.5,30.06,SSE,157,1.7,-999.0,71,-99.99,,,0.00,Acu-Link.com,2013-01-23 23:33:00,
2013-01-23 18:48:00,7.2,1.5,30.05,South,180,0.0,-999.0,77,-99.99,,,0.00,Acu-Link.com,2013-01-23 23:48:00,
2013-01-23 19:03:00,6.1,0.7,30.06,SE,135,0.0,-999.0,78,-99.99,,,0.00,Acu-Link.com,2013-01-24 00:03:00,
2013-01-23 19:19:00,5.2,0.7,30.05,SE,135,0.0,-999.0,81,-99.99,,,0.00,Acu-Link.com,2013-01-24 00:19:00,
2013-01-23 19:34:00,4.3,0.3,30.04,ESE,112,0.0,-999.0,83,-99.99,,,0.00,Acu-Link.com,2013-01-24 00:34:00,
2013-01-23 19:49:00,3.6,0.1,30.05,SE,135,0.0,-999.0,85,-99.99,,,0.00,Acu-Link.com,2013-01-24 00:49:00,
2013-01-23 20:05:00,3.4,-0.1,30.05,South,180,0.0,-999.0,85,-99.99,,,0.00,Acu-Link.com,2013-01-24 01:05:00,
2013-01-23 20:20:00,2.5,-0.2,30.05,South,180,0.0,-999.0,88,-99.99,,,0.00,Acu-Link.com,2013-01-24 01:20:00,
2013-01-23 20:35:00,2.1,-0.6,30.04,SE,135,0.0,-999.0,88,-99.99,,,0.00,Acu-Link.com,2013-01-24 01:35:00,
2013-01-23 20:50:00,1.6,-1.4,30.05,ENE,67,0.0,-999.0,87,-99.99,,,0.00,Acu-Link.com,2013-01-24 01:50:00,
2013-01-23 21:06:00,1.0,-1.9,30.06,ESE,112,0.0,-999.0,87,-99.99,,,0.00,Acu-Link.com,2013-01-24 02:06:00,
2013-01-23 21:21:00,1.6,-0.9,30.06,NNE,22,0.0,-999.0,89,-99.99,,,0.00,Acu-Link.com,2013-01-24 02:21:00,
2013-01-23 21:36:00,1.6,-0.4,30.06,SSW,202,0.0,-999.0,91,-99.99,,,0.00,Acu-Link.com,2013-01-24 02:36:00,
2013-01-23 21:52:00,1.2,-1.3,30.06,East,90,0.0,-999.0,89,-99.99,,,0.00,Acu-Link.com,2013-01-24 02:52:00,
2013-01-23 22:07:00,1.0,-1.7,30.04,SW,225,0.0,-999.0,88,-99.99,,,0.00,Acu-Link.com,2013-01-24 03:07:00,
2013-01-23 22:22:00,1.0,-1.5,30.04,East,90,0.0,-999.0,89,-99.99,,,0.00,Acu-Link.com,2013-01-24 03:22:00,
2013-01-23 22:38:00,1.2,-0.6,30.06,SSE,157,0.0,-999.0,92,-99.99,,,0.00,Acu-Link.com,2013-01-24 03:38:00,
2013-01-23 22:53:00,0.5,-1.7,30.05,North,0,0.0,-999.0,90,-99.99,,,0.00,Acu-Link.com,2013-01-24 03:53:00,
2013-01-23 23:08:00,0.7,-0.8,30.05,SSW,202,0.0,-999.0,93,-99.99,,,0.00,Acu-Link.com,2013-01-24 04:08:00,
2013-01-23 23:24:00,-0.2,-2.7,30.04,SSW,202,0.0,-999.0,89,-99.99,,,0.00,Acu-Link.com,2013-01-24 04:24:00,
2013-01-23 23:39:00,-0.6,-3.0,30.04,ESE,112,0.0,-999.0,89,-99.99,,,0.00,Acu-Link.com,2013-01-24 04:39:00,
2013-01-23 23:54:00,0.9,-0.6,30.03,SSW,202,0.0,-999.0,93,-99.99,,,0.00,Acu-Link.com,2013-01-24 04:54:00,